Time;durP1;ratioP1;P1;durP2;ratioP2;P2;SDS_P1;SDS_P2;PMS_P1;PMS_P2;Temp;Humidity;BMP_temperature;BMP_pressure;BME280_temperature;BME280_humidity;BME280_pressure;Samples;Min_cycle;Max_cycle;Signal;HPM_P1;HPM_P2
2022/02/05 00:02:20;;;;;;;;;;;7.20;99.90;;;;;;4175940;28;20407;-49
2022/02/05 00:04:23;;;;;;;;;;;7.20;99.90;;;;;;4173362;28;20072;-48
2022/02/05 00:06:31;;;;;;;;;;;7.20;99.90;;;;;;4175366;28;19925;-50
2022/02/05 00:08:51;;;;;;;;;;;7.20;99.90;;;;;;4176654;28;19963;-50
2022/02/05 00:15:50;;;;;;;;;;;7.00;99.90;;;;;;4134535;28;19970;-49
2022/02/05 00:40:59;;;;;;;;;;;6.80;99.90;;;;;;4174519;28;19983;-48
2022/02/05 00:43:01;;;;;;;;;;;6.80;99.90;;;;;;4173282;28;19939;-46
2022/02/05 00:45:07;;;;;;;;;;;6.70;99.90;;;;;;4175831;28;19960;-50
2022/02/05 00:47:09;;;;;;;;;;;6.70;99.90;;;;;;4174135;28;19971;-50
2022/02/05 00:49:12;;;;;;;;;;;6.80;99.90;;;;;;4171656;28;19972;-49
2022/02/05 00:52:03;;;;;;;;;;;6.80;99.90;;;;;;4174890;28;20475;-50
2022/02/05 00:53:41;;;;;;;;;;;6.90;99.90;;;;;;4166099;28;19929;-48
2022/02/05 00:55:51;;;;;;;;;;;6.80;99.90;;;;;;4173149;28;20349;-49
2022/02/05 00:57:53;;;;;;;;;;;6.70;99.90;;;;;;4174469;28;20019;-48
2022/02/05 00:59:55;;;;;;;;;;;6.60;99.90;;;;;;4173508;28;19948;-50
2022/02/05 01:01:57;;;;;;;;;;;6.60;99.90;;;;;;4175684;28;19924;-46
2022/02/05 01:03:59;;;;;;;;;;;6.50;99.90;;;;;;4175246;28;19933;-49
2022/02/05 01:06:02;;;;;;;;;;;6.50;99.90;;;;;;4173685;28;19933;-48
2022/02/05 01:08:04;;;;;;;;;;;6.50;99.90;;;;;;4173545;28;19936;-49
2022/02/05 01:10:06;;;;;;;;;;;6.50;99.90;;;;;;4165932;28;19964;-48
2022/02/05 01:12:09;;;;;;;;;;;6.60;99.90;;;;;;4174729;28;19983;-47
2022/02/05 01:14:14;;;;;;;;;;;6.50;99.90;;;;;;4175611;28;19939;-47
2022/02/05 01:16:25;;;;;;;;;;;6.60;99.90;;;;;;4175712;28;20621;-50
2022/02/05 01:18:27;;;;;;;;;;;6.70;99.90;;;;;;4174512;28;20466;-48
2022/02/05 01:22:37;;;;;;;;;;;6.60;99.90;;;;;;4167181;28;20346;-50
2022/02/05 01:24:41;;;;;;;;;;;6.50;99.90;;;;;;4174328;28;19933;-49
2022/02/05 01:26:50;;;;;;;;;;;6.50;99.90;;;;;;4178748;28;19947;-49
2022/02/05 01:28:59;;;;;;;;;;;6.60;99.90;;;;;;4165993;28;19941;-48
2022/02/05 01:31:01;;;;;;;;;;;6.60;99.90;;;;;;4169341;28;19933;-50
2022/02/05 01:57:35;;;;;;;;;;;6.60;99.90;;;;;;4166275;28;19995;-49
2022/02/05 02:04:55;;;;;;;;;;;6.40;99.90;;;;;;4166942;28;20428;-48
2022/02/05 02:07:26;;;;;;;;;;;6.40;99.90;;;;;;4157833;28;19928;-49
2022/02/05 02:22:58;;;;;;;;;;;6.40;99.90;;;;;;4177949;28;19947;-48
2022/02/05 02:25:11;;;;;;;;;;;6.50;99.90;;;;;;4177768;28;19929;-49
2022/02/05 02:27:33;;;;;;;;;;;6.50;99.90;;;;;;4172928;28;19968;-50
2022/02/05 02:30:22;;;;;;;;;;;6.50;99.90;;;;;;4175904;28;19925;-47
2022/02/05 02:32:00;;;;;;;;;;;6.50;99.90;;;;;;4170412;28;19967;-50
2022/02/05 02:34:06;;;;;;;;;;;6.50;99.90;;;;;;4178166;28;19971;-47
2022/02/05 02:36:14;;;;;;;;;;;6.50;99.90;;;;;;4171123;28;20663;-48
2022/02/05 02:38:20;;;;;;;;;;;6.50;99.90;;;;;;4148826;28;20412;-50
2022/02/05 02:40:32;;;;;;;;;;;6.60;99.90;;;;;;4177955;28;19932;-48
2022/02/05 02:42:40;;;;;;;;;;;6.50;99.90;;;;;;4176499;28;19963;-47
2022/02/05 02:44:42;;;;;;;;;;;6.60;99.90;;;;;;4177162;28;19955;-50
2022/02/05 02:46:43;;;;;;;;;;;6.60;99.90;;;;;;4177806;28;19924;-48
2022/02/05 02:48:47;;;;;;;;;;;6.60;99.90;;;;;;4175992;28;19924;-49
2022/02/05 02:57:56;;;;;;;;;;;6.60;99.90;;;;;;4176322;28;20023;-46
2022/02/05 03:00:03;;;;;;;;;;;6.60;99.90;;;;;;4175455;28;19998;-47
2022/02/05 03:02:13;;;;;;;;;;;6.60;99.90;;;;;;4177514;28;20235;-46
2022/02/05 03:04:14;;;;;;;;;;;6.60;99.90;;;;;;4175826;28;19972;-47
2022/02/05 03:06:17;;;;;;;;;;;6.60;99.90;;;;;;4175562;28;20015;-46
2022/02/05 03:08:19;;;;;;;;;;;6.60;99.90;;;;;;4167083;28;19925;-46
2022/02/05 03:10:21;;;;;;;;;;;6.60;99.90;;;;;;4175721;28;20011;-48
2022/02/05 03:12:23;;;;;;;;;;;6.70;99.90;;;;;;4176812;28;20023;-46
2022/02/05 03:14:25;;;;;;;;;;;6.70;99.90;;;;;;4163537;28;19994;-50
2022/02/05 03:16:34;;;;;;;;;;;6.70;99.90;;;;;;4171270;28;19952;-50
2022/02/05 03:18:49;;;;;;;;;;;6.70;99.90;;;;;;4174379;28;19925;-49
2022/02/05 03:20:51;;;;;;;;;;;6.70;99.90;;;;;;4177445;28;19924;-47
2022/02/05 03:22:53;;;;;;;;;;;6.70;99.90;;;;;;4175113;28;19967;-50
2022/02/05 03:24:55;;;;;;;;;;;6.70;99.90;;;;;;4175284;28;19947;-47
2022/02/05 03:26:57;;;;;;;;;;;6.70;99.90;;;;;;4176355;28;20019;-50
2022/02/05 03:28:59;;;;;;;;;;;6.70;99.90;;;;;;4175409;28;19960;-50
2022/02/05 03:31:01;;;;;;;;;;;6.70;99.90;;;;;;4175222;28;20059;-48
2022/02/05 03:33:02;;;;;;;;;;;6.70;99.90;;;;;;4177785;28;20016;-49
2022/02/05 03:35:05;;;;;;;;;;;6.80;99.90;;;;;;4175169;28;20032;-47
2022/02/05 03:37:07;;;;;;;;;;;6.70;99.90;;;;;;4176591;28;19982;-48
2022/02/05 03:39:09;;;;;;;;;;;6.70;99.90;;;;;;4170742;28;20023;-49
2022/02/05 03:41:11;;;;;;;;;;;6.80;99.90;;;;;;4175796;28;20039;-47
2022/02/05 03:43:13;;;;;;;;;;;6.80;99.90;;;;;;4174926;28;20013;-46
2022/02/05 03:45:15;;;;;;;;;;;6.70;99.90;;;;;;4176915;28;19936;-47
2022/02/05 03:47:17;;;;;;;;;;;6.70;99.90;;;;;;4167559;28;20741;-50
2022/02/05 03:49:20;;;;;;;;;;;6.70;99.90;;;;;;4166868;28;19936;-48
2022/02/05 03:51:21;;;;;;;;;;;6.70;99.90;;;;;;4175986;28;20011;-49
2022/02/05 03:53:23;;;;;;;;;;;6.70;99.90;;;;;;4174864;28;20019;-47
2022/02/05 03:55:25;;;;;;;;;;;6.80;99.90;;;;;;4176158;28;20736;-46
2022/02/05 03:57:27;;;;;;;;;;;6.80;99.90;;;;;;4176073;28;20600;-50
2022/02/05 03:59:29;;;;;;;;;;;6.70;99.90;;;;;;4174059;28;19979;-48
2022/02/05 04:01:31;;;;;;;;;;;6.80;99.90;;;;;;4176715;28;20473;-49
2022/02/05 04:03:33;;;;;;;;;;;6.80;99.90;;;;;;4175030;28;19956;-46
2022/02/05 04:05:35;;;;;;;;;;;6.70;99.90;;;;;;4175853;28;19935;-48
2022/02/05 04:07:41;;;;;;;;;;;6.80;99.90;;;;;;4169043;28;20208;-48
2022/02/05 04:09:46;;;;;;;;;;;6.80;99.90;;;;;;4174747;28;19936;-48
2022/02/05 04:16:22;;;;;;;;;;;6.80;99.90;;;;;;4158507;28;19929;-47
2022/02/05 04:18:24;;;;;;;;;;;6.70;99.90;;;;;;4173770;28;20020;-49
2022/02/05 04:20:28;;;;;;;;;;;6.70;99.90;;;;;;4176306;28;20037;-50
2022/02/05 04:22:30;;;;;;;;;;;6.70;99.90;;;;;;4170761;28;20020;-50
2022/02/05 04:24:33;;;;;;;;;;;6.70;99.90;;;;;;4175066;28;19929;-47
2022/02/05 04:26:35;;;;;;;;;;;6.70;99.90;;;;;;4175524;28;19925;-49
2022/02/05 04:28:37;;;;;;;;;;;6.70;99.90;;;;;;4176132;28;19972;-50
2022/02/05 04:30:38;;;;;;;;;;;6.70;99.90;;;;;;4175202;28;20308;-48
2022/02/05 04:32:40;;;;;;;;;;;6.70;99.90;;;;;;4173851;28;19929;-47
2022/02/05 04:34:42;;;;;;;;;;;6.70;99.90;;;;;;4175623;28;20405;-48
2022/02/05 04:36:44;;;;;;;;;;;6.80;99.90;;;;;;4174726;28;20015;-49
2022/02/05 04:38:48;;;;;;;;;;;6.70;99.90;;;;;;4175008;28;20031;-51
2022/02/05 04:40:55;;;;;;;;;;;6.70;99.90;;;;;;4175288;28;19935;-49
2022/02/05 04:43:51;;;;;;;;;;;6.80;99.90;;;;;;4167806;28;19974;-48
2022/02/05 04:54:47;;;;;;;;;;;6.80;99.90;;;;;;4169329;28;19936;-49
2022/02/05 04:57:04;;;;;;;;;;;6.70;99.90;;;;;;4172426;28;19982;-48
2022/02/05 05:04:20;;;;;;;;;;;6.80;99.90;;;;;;4150735;28;19936;-48
2022/02/05 05:13:03;;;;;;;;;;;6.80;99.90;;;;;;4174954;28;19929;-48
2022/02/05 05:19:49;;;;;;;;;;;6.90;99.90;;;;;;4175486;28;19940;-49
2022/02/05 05:21:50;;;;;;;;;;;6.80;99.90;;;;;;4179355;28;19928;-47
2022/02/05 05:23:52;;;;;;;;;;;6.90;99.90;;;;;;4177077;28;19929;-46
2022/02/05 05:25:54;;;;;;;;;;;6.90;99.90;;;;;;4177223;28;19964;-48
2022/02/05 05:27:56;;;;;;;;;;;6.90;99.90;;;;;;4179925;28;19983;-50
2022/02/05 05:29:59;;;;;;;;;;;6.90;99.90;;;;;;4178808;28;19928;-48
2022/02/05 05:32:01;;;;;;;;;;;6.90;99.90;;;;;;4175822;28;20013;-47
2022/02/05 05:34:02;;;;;;;;;;;6.90;99.90;;;;;;4162884;28;19936;-48
2022/02/05 05:36:04;;;;;;;;;;;6.80;99.90;;;;;;4175382;28;20233;-49
2022/02/05 05:38:07;;;;;;;;;;;6.80;99.90;;;;;;4177220;28;20389;-47
2022/02/05 05:40:09;;;;;;;;;;;6.80;99.90;;;;;;4179337;28;20365;-47
2022/02/05 05:42:15;;;;;;;;;;;6.90;99.90;;;;;;4170384;28;20048;-47
2022/02/05 05:46:42;;;;;;;;;;;6.80;99.90;;;;;;4179084;28;20047;-46
2022/02/05 05:50:58;;;;;;;;;;;6.90;99.90;;;;;;4177146;28;20447;-46
2022/02/05 05:53:01;;;;;;;;;;;6.90;99.90;;;;;;4174637;28;20468;-46
2022/02/05 05:55:03;;;;;;;;;;;6.90;99.90;;;;;;4178602;28;19928;-48
2022/02/05 05:57:05;;;;;;;;;;;6.80;99.90;;;;;;4175688;28;19964;-48
2022/02/05 05:59:07;;;;;;;;;;;6.80;99.90;;;;;;4178939;28;19982;-47
2022/02/05 06:01:09;;;;;;;;;;;6.80;99.90;;;;;;4176410;28;20012;-48
2022/02/05 06:03:11;;;;;;;;;;;6.80;99.90;;;;;;4177162;28;19936;-48
2022/02/05 06:05:13;;;;;;;;;;;6.80;99.90;;;;;;4174755;28;20792;-49
2022/02/05 06:07:15;;;;;;;;;;;6.80;99.90;;;;;;4176660;28;19929;-48
2022/02/05 06:09:17;;;;;;;;;;;6.80;99.90;;;;;;4177021;28;19931;-48
2022/02/05 06:11:19;;;;;;;;;;;6.80;99.90;;;;;;4178083;28;19971;-48
2022/02/05 06:13:21;;;;;;;;;;;6.80;99.90;;;;;;4175219;28;19924;-47
2022/02/05 06:15:23;;;;;;;;;;;6.80;99.90;;;;;;4175412;28;19937;-46
2022/02/05 06:17:26;;;;;;;;;;;6.80;99.90;;;;;;4178006;28;20115;-50
2022/02/05 06:19:28;;;;;;;;;;;6.80;99.90;;;;;;4167538;28;19965;-51
2022/02/05 06:21:29;;;;;;;;;;;6.80;99.90;;;;;;4175479;28;20020;-51
2022/02/05 06:23:31;;;;;;;;;;;6.80;99.90;;;;;;4169633;28;19971;-50
2022/02/05 06:25:35;;;;;;;;;;;6.80;99.90;;;;;;4170761;28;20016;-52
2022/02/05 06:27:37;;;;;;;;;;;6.80;99.90;;;;;;4177991;28;19924;-51
2022/02/05 06:29:39;;;;;;;;;;;6.70;99.90;;;;;;4178279;28;19955;-51
2022/02/05 06:31:41;;;;;;;;;;;6.70;99.90;;;;;;4174962;28;19925;-52
2022/02/05 06:33:42;;;;;;;;;;;6.70;99.90;;;;;;4176326;28;19982;-52
2022/02/05 06:35:47;;;;;;;;;;;6.70;99.90;;;;;;4174022;28;20032;-50
2022/02/05 06:37:49;;;;;;;;;;;6.70;99.90;;;;;;4176690;28;20016;-51
2022/02/05 06:39:51;;;;;;;;;;;6.70;99.90;;;;;;4153064;28;20076;-51
2022/02/05 06:41:53;;;;;;;;;;;6.70;99.90;;;;;;4178386;28;20023;-52
2022/02/05 06:43:54;;;;;;;;;;;6.70;99.90;;;;;;4174681;28;19925;-51
2022/02/05 06:45:56;;;;;;;;;;;6.70;99.90;;;;;;4174971;28;20338;-51
2022/02/05 06:47:59;;;;;;;;;;;6.70;99.90;;;;;;4178493;28;20020;-50
2022/02/05 06:50:01;;;;;;;;;;;6.70;99.90;;;;;;4176735;28;19931;-52
2022/02/05 06:52:03;;;;;;;;;;;6.80;99.90;;;;;;4176701;28;20033;-52
2022/02/05 06:54:05;;;;;;;;;;;6.80;99.90;;;;;;4177964;28;19928;-52
2022/02/05 06:56:07;;;;;;;;;;;6.80;99.90;;;;;;4175989;28;19924;-52
2022/02/05 06:58:09;;;;;;;;;;;6.80;99.90;;;;;;4177506;28;19971;-52
2022/02/05 07:00:11;;;;;;;;;;;6.80;99.90;;;;;;4164385;28;19929;-51
2022/02/05 07:02:13;;;;;;;;;;;6.90;99.90;;;;;;4170396;28;20027;-50
2022/02/05 07:04:15;;;;;;;;;;;6.90;99.90;;;;;;4177191;28;20027;-53
2022/02/05 07:06:17;;;;;;;;;;;6.90;99.90;;;;;;4178890;28;19924;-52
2022/02/05 07:08:19;;;;;;;;;;;6.90;99.90;;;;;;4171792;28;19925;-52
2022/02/05 07:10:21;;;;;;;;;;;6.80;99.90;;;;;;4161462;28;20332;-50
2022/02/05 07:12:23;;;;;;;;;;;6.90;99.90;;;;;;4176141;28;19932;-51
2022/02/05 07:14:29;;;;;;;;;;;6.80;99.90;;;;;;4174606;28;19976;-52
2022/02/05 07:16:37;;;;;;;;;;;6.90;99.90;;;;;;4162753;28;20300;-52
2022/02/05 07:21:02;;;;;;;;;;;6.90;99.90;;;;;;4169053;28;19990;-52
2022/02/05 07:29:34;;;;;;;;;;;7.00;99.90;;;;;;4164746;28;19968;-51
2022/02/05 07:31:37;;;;;;;;;;;7.00;99.90;;;;;;4176649;28;19998;-52
2022/02/05 07:33:39;;;;;;;;;;;7.00;99.90;;;;;;4175181;28;20011;-52
2022/02/05 07:35:41;;;;;;;;;;;7.00;99.90;;;;;;4175897;28;19929;-52
2022/02/05 07:37:43;;;;;;;;;;;7.00;99.90;;;;;;4176588;28;19936;-52
2022/02/05 07:39:47;;;;;;;;;;;7.00;99.90;;;;;;4155841;28;19929;-53
2022/02/05 07:41:49;;;;;;;;;;;7.00;99.90;;;;;;4177079;28;20007;-52
2022/02/05 07:43:51;;;;;;;;;;;7.00;99.90;;;;;;4173773;28;19987;-51
2022/02/05 07:45:56;;;;;;;;;;;7.00;99.90;;;;;;4175200;28;19933;-52
2022/02/05 07:47:58;;;;;;;;;;;7.00;99.90;;;;;;4176212;28;20319;-52
2022/02/05 07:50:01;;;;;;;;;;;7.10;99.90;;;;;;4176849;28;20348;-52
2022/02/05 07:52:04;;;;;;;;;;;7.10;99.90;;;;;;4172213;28;19929;-52
2022/02/05 07:54:10;;;;;;;;;;;7.10;99.90;;;;;;4176763;28;20015;-52
2022/02/05 07:56:12;;;;;;;;;;;7.10;99.90;;;;;;4173608;28;19924;-52
2022/02/05 07:58:15;;;;;;;;;;;7.10;99.90;;;;;;4175288;28;19944;-52
2022/02/05 08:00:17;;;;;;;;;;;7.10;99.90;;;;;;4174400;28;20554;-52
2022/02/05 08:02:19;;;;;;;;;;;7.20;99.90;;;;;;4168483;28;20037;-52
2022/02/05 08:04:21;;;;;;;;;;;7.20;99.90;;;;;;4168022;28;20361;-52
2022/02/05 08:06:22;;;;;;;;;;;7.20;99.90;;;;;;4168941;28;20043;-52
2022/02/05 08:08:27;;;;;;;;;;;7.20;99.90;;;;;;4171454;28;19928;-51
2022/02/05 08:10:35;;;;;;;;;;;7.20;99.90;;;;;;4167509;28;20388;-52
2022/02/05 08:12:41;;;;;;;;;;;7.20;99.90;;;;;;4165327;28;19935;-52
2022/02/05 08:14:47;;;;;;;;;;;7.20;99.90;;;;;;4175084;28;19952;-52
2022/02/05 08:16:54;;;;;;;;;;;7.20;99.90;;;;;;4169523;28;20047;-52
2022/02/05 08:18:56;;;;;;;;;;;7.20;99.90;;;;;;4175976;28;19960;-50
2022/02/05 08:20:58;;;;;;;;;;;7.20;99.90;;;;;;4173164;28;19944;-52
2022/02/05 08:23:00;;;;;;;;;;;7.30;99.90;;;;;;4175450;28;19924;-51
2022/02/05 08:25:02;;;;;;;;;;;7.20;99.90;;;;;;4176411;28;19936;-51
2022/02/05 08:27:04;;;;;;;;;;;7.20;99.90;;;;;;4172256;28;19929;-50
2022/02/05 08:29:06;;;;;;;;;;;7.20;99.90;;;;;;4172508;28;20412;-52
2022/02/05 08:31:08;;;;;;;;;;;7.20;99.90;;;;;;4176238;28;20004;-52
2022/02/05 08:33:10;;;;;;;;;;;7.30;99.90;;;;;;4176025;28;19925;-52
2022/02/05 08:35:12;;;;;;;;;;;7.30;99.90;;;;;;4179973;28;20301;-52
2022/02/05 08:37:14;;;;;;;;;;;7.40;99.90;;;;;;4178450;28;19940;-50
2022/02/05 08:39:17;;;;;;;;;;;7.50;99.90;;;;;;4180145;28;20044;-50
2022/02/05 08:41:19;;;;;;;;;;;7.50;99.90;;;;;;4180071;28;19968;-51
2022/02/05 08:43:21;;;;;;;;;;;7.60;99.90;;;;;;4176504;28;20028;-52
2022/02/05 08:45:23;;;;;;;;;;;7.60;99.90;;;;;;4179344;28;19936;-52
2022/02/05 08:47:25;;;;;;;;;;;7.50;99.90;;;;;;4182973;28;20007;-53
2022/02/05 08:49:28;;;;;;;;;;;7.50;99.90;;;;;;4175252;28;20054;-53
2022/02/05 08:51:31;;;;;;;;;;;7.40;99.90;;;;;;4177313;28;20469;-52
2022/02/05 08:53:35;;;;;;;;;;;7.40;99.90;;;;;;4179889;28;20027;-53
2022/02/05 08:55:36;;;;;;;;;;;7.50;99.90;;;;;;4176669;28;20319;-53
2022/02/05 08:57:40;;;;;;;;;;;7.60;99.90;;;;;;4178293;28;20412;-52
2022/02/05 09:00:00;;;;;;;;;;;7.60;99.90;;;;;;4182076;28;20027;-53
2022/02/05 09:02:11;;;;;;;;;;;7.60;99.90;;;;;;4175790;28;19925;-51
2022/02/05 09:06:26;;;;;;;;;;;7.70;99.90;;;;;;4171923;28;20411;-53
2022/02/05 09:08:37;;;;;;;;;;;7.70;99.90;;;;;;4176967;28;19928;-53
2022/02/05 09:10:54;;;;;;;;;;;7.70;99.90;;;;;;4177809;28;20054;-52
2022/02/05 09:13:35;;;;;;;;;;;7.70;99.90;;;;;;4179039;28;20023;-53
2022/02/05 09:15:35;;;;;;;;;;;7.70;99.90;;;;;;4179527;28;19967;-53
2022/02/05 09:17:37;;;;;;;;;;;7.60;99.90;;;;;;4174914;28;19960;-52
2022/02/05 09:19:40;;;;;;;;;;;7.60;99.90;;;;;;4176410;28;20297;-51
2022/02/05 09:21:42;;;;;;;;;;;7.70;99.90;;;;;;4178530;28;19932;-52
2022/02/05 09:23:53;;;;;;;;;;;7.70;99.90;;;;;;4177553;28;19951;-50
2022/02/05 09:25:56;;;;;;;;;;;7.70;99.90;;;;;;4177808;28;19940;-52
2022/02/05 09:27:58;;;;;;;;;;;7.80;99.90;;;;;;4178997;28;19925;-51
2022/02/05 09:30:04;;;;;;;;;;;7.80;99.90;;;;;;4178895;28;20015;-52
2022/02/05 09:32:06;;;;;;;;;;;7.90;99.90;;;;;;4177276;28;19925;-52
2022/02/05 09:34:08;;;;;;;;;;;7.90;99.90;;;;;;4173823;28;19975;-52
2022/02/05 09:36:09;;;;;;;;;;;7.90;99.90;;;;;;4175104;28;19925;-50
2022/02/05 09:38:11;;;;;;;;;;;8.00;99.90;;;;;;4178856;28;19960;-52
2022/02/05 09:40:13;;;;;;;;;;;8.00;99.90;;;;;;4169189;28;19972;-52
2022/02/05 09:42:16;;;;;;;;;;;8.10;99.90;;;;;;4174182;28;19995;-50
2022/02/05 09:44:18;;;;;;;;;;;8.00;99.90;;;;;;4173196;28;19925;-52
2022/02/05 09:46:20;;;;;;;;;;;8.10;99.90;;;;;;4178484;28;19935;-52
2022/02/05 09:48:22;;;;;;;;;;;8.10;99.90;;;;;;4175088;28;20008;-51
2022/02/05 09:50:24;;;;;;;;;;;8.10;99.90;;;;;;4165680;28;20031;-52
2022/02/05 09:52:27;;;;;;;;;;;8.10;99.90;;;;;;4174936;28;19925;-51
2022/02/05 09:54:29;;;;;;;;;;;8.10;99.90;;;;;;4174167;28;19976;-52
2022/02/05 09:56:32;;;;;;;;;;;8.00;99.90;;;;;;4172571;28;20528;-52
2022/02/05 09:58:34;;;;;;;;;;;8.00;99.90;;;;;;4170773;28;20455;-51
2022/02/05 10:00:36;;;;;;;;;;;8.10;99.90;;;;;;4169675;28;20003;-51
2022/02/05 10:02:40;;;;;;;;;;;8.10;99.90;;;;;;4170201;28;20131;-50
2022/02/05 10:04:51;;;;;;;;;;;8.10;99.90;;;;;;4170920;28;19939;-52
2022/02/05 10:07:03;;;;;;;;;;;8.20;99.90;;;;;;4171043;28;19932;-51
2022/02/05 10:09:10;;;;;;;;;;;8.20;99.90;;;;;;4180051;28;19933;-51
2022/02/05 10:11:12;;;;;;;;;;;8.30;99.90;;;;;;4173711;28;20728;-51
2022/02/05 10:13:21;;;;;;;;;;;8.30;99.90;;;;;;4176697;28;19964;-51
2022/02/05 10:15:30;;;;;;;;;;;8.40;99.90;;;;;;4175104;28;19929;-49
2022/02/05 10:17:53;;;;;;;;;;;8.30;99.90;;;;;;4171478;28;19925;-50
2022/02/05 10:19:55;;;;;;;;;;;8.40;99.90;;;;;;4180820;28;19940;-52
2022/02/05 10:22:05;;;;;;;;;;;8.60;99.90;;;;;;4177845;28;20011;-50
2022/02/05 10:24:11;;;;;;;;;;;8.50;99.90;;;;;;4176065;28;19924;-51
2022/02/05 10:26:26;;;;;;;;;;;8.60;99.90;;;;;;4175813;28;20020;-51
2022/02/05 10:28:28;;;;;;;;;;;8.70;99.90;;;;;;4163191;28;20023;-51
2022/02/05 10:30:31;;;;;;;;;;;8.70;99.90;;;;;;4178082;28;20007;-51
2022/02/05 10:32:33;;;;;;;;;;;8.70;99.90;;;;;;4176468;28;20317;-51
2022/02/05 10:34:55;;;;;;;;;;;8.80;99.90;;;;;;4178534;28;19933;-50
2022/02/05 10:37:07;;;;;;;;;;;8.70;99.90;;;;;;4163099;28;19926;-52
2022/02/05 10:39:25;;;;;;;;;;;8.70;99.90;;;;;;4174428;28;20029;-52
2022/02/05 10:43:37;;;;;;;;;;;8.80;99.90;;;;;;4161491;28;19969;-51
2022/02/05 10:45:50;;;;;;;;;;;8.70;99.90;;;;;;4175895;28;19935;-51
2022/02/05 10:47:52;;;;;;;;;;;8.80;99.90;;;;;;4176129;28;20393;-51
2022/02/05 10:49:56;;;;;;;;;;;8.90;99.90;;;;;;4178466;28;19929;-52
2022/02/05 10:52:00;;;;;;;;;;;9.00;99.90;;;;;;4166552;28;20345;-51
2022/02/05 10:54:08;;;;;;;;;;;9.30;99.90;;;;;;4168833;28;20003;-50
2022/02/05 10:58:40;;;;;;;;;;;9.50;99.90;;;;;;4166595;28;19936;-52
2022/02/05 11:05:15;;;;;;;;;;;9.70;99.90;;;;;;4175720;28;19925;-51
2022/02/05 11:07:22;;;;;;;;;;;9.70;99.90;;;;;;4176231;28;19936;-51
2022/02/05 11:09:24;;;;;;;;;;;9.80;99.90;;;;;;4175704;28;20007;-51
2022/02/05 11:14:00;;;;;;;;;;;9.80;99.90;;;;;;4175892;28;19967;-51
2022/02/05 11:18:31;;;;;;;;;;;9.90;99.90;;;;;;4173721;28;19968;-51
2022/02/05 11:20:33;;;;;;;;;;;10.00;99.90;;;;;;4176716;28;19933;-51
2022/02/05 11:22:51;;;;;;;;;;;10.00;99.90;;;;;;4175723;28;19925;-51
2022/02/05 11:24:54;;;;;;;;;;;10.00;99.90;;;;;;4176061;28;19925;-50
2022/02/05 11:26:56;;;;;;;;;;;10.20;99.90;;;;;;4176130;28;20566;-52
2022/02/05 11:28:59;;;;;;;;;;;10.10;99.90;;;;;;4174163;28;19954;-51
2022/02/05 11:31:09;;;;;;;;;;;10.20;99.90;;;;;;4175687;28;20019;-52
2022/02/05 11:33:22;;;;;;;;;;;10.30;99.90;;;;;;4177298;28;20381;-48
2022/02/05 11:35:33;;;;;;;;;;;10.50;99.90;;;;;;4176237;28;19968;-50
2022/02/05 11:37:54;;;;;;;;;;;10.60;99.90;;;;;;4175476;28;20055;-51
2022/02/05 11:39:56;;;;;;;;;;;10.60;99.90;;;;;;4175683;28;19932;-51
2022/02/05 11:42:18;;;;;;;;;;;10.50;99.90;;;;;;4176068;28;20032;-49
2022/02/05 11:44:23;;;;;;;;;;;10.60;99.90;;;;;;4172773;28;19925;-52
2022/02/05 11:46:25;;;;;;;;;;;10.70;99.90;;;;;;4159202;28;19925;-52
2022/02/05 11:48:45;;;;;;;;;;;10.80;99.90;;;;;;4183528;28;19935;-50
2022/02/05 11:51:06;;;;;;;;;;;11.00;99.90;;;;;;4175220;28;19929;-51
2022/02/05 11:53:08;;;;;;;;;;;10.90;99.90;;;;;;4174087;28;19987;-52
2022/02/05 11:55:14;;;;;;;;;;;10.90;99.90;;;;;;4167790;28;19925;-51
2022/02/05 11:57:16;;;;;;;;;;;10.90;99.90;;;;;;4174502;28;19972;-52
2022/02/05 11:59:22;;;;;;;;;;;11.00;99.90;;;;;;4173362;28;23405;-50
2022/02/05 12:01:35;;;;;;;;;;;10.90;99.90;;;;;;4176518;28;19932;-49
2022/02/05 12:03:41;;;;;;;;;;;10.90;99.90;;;;;;4162897;28;19928;-52
2022/02/05 12:05:51;;;;;;;;;;;11.00;99.90;;;;;;4173602;28;20023;-52
2022/02/05 12:08:05;;;;;;;;;;;11.10;99.90;;;;;;4173965;28;20444;-51
2022/02/05 12:10:25;;;;;;;;;;;11.10;99.90;;;;;;4176211;28;19932;-51
2022/02/05 12:12:38;;;;;;;;;;;11.10;99.90;;;;;;4167760;28;20016;-51
2022/02/05 12:15:00;;;;;;;;;;;11.10;99.90;;;;;;4168661;28;20484;-52
2022/02/05 12:17:16;;;;;;;;;;;11.20;99.90;;;;;;4179147;28;20393;-52
2022/02/05 12:19:27;;;;;;;;;;;11.30;99.90;;;;;;4174223;28;19982;-52
2022/02/05 12:21:48;;;;;;;;;;;11.40;99.90;;;;;;4176337;28;20011;-52
2022/02/05 12:25:58;;;;;;;;;;;11.50;99.90;;;;;;4176900;28;19929;-52
2022/02/05 12:28:19;;;;;;;;;;;11.50;99.90;;;;;;4174985;28;19929;-52
2022/02/05 12:30:29;;;;;;;;;;;11.30;99.90;;;;;;4175263;28;19960;-52
2022/02/05 12:32:31;;;;;;;;;;;11.50;99.90;;;;;;4161684;28;20008;-52
2022/02/05 12:34:34;;;;;;;;;;;11.60;99.90;;;;;;4174809;28;19987;-52
2022/02/05 12:36:40;;;;;;;;;;;11.70;99.90;;;;;;4173218;28;20052;-54
2022/02/05 12:38:43;;;;;;;;;;;11.80;99.90;;;;;;4176428;28;20024;-54
2022/02/05 12:40:47;;;;;;;;;;;11.80;99.90;;;;;;4175547;28;20012;-54
2022/02/05 12:42:53;;;;;;;;;;;12.00;99.90;;;;;;4174403;28;20452;-53
2022/02/05 12:44:59;;;;;;;;;;;12.40;99.90;;;;;;4176384;28;19974;-53
2022/02/05 12:47:12;;;;;;;;;;;12.50;99.90;;;;;;4165653;28;20404;-53
2022/02/05 12:49:54;;;;;;;;;;;12.70;99.90;;;;;;4169706;28;19963;-53
2022/02/05 12:51:44;;;;;;;;;;;13.10;99.90;;;;;;4172106;28;19925;-54
2022/02/05 12:53:46;;;;;;;;;;;13.10;99.90;;;;;;4177541;28;19939;-54
2022/02/05 12:55:48;;;;;;;;;;;13.00;99.90;;;;;;4169001;28;19968;-54
2022/02/05 12:58:00;;;;;;;;;;;13.00;99.90;;;;;;4162675;28;20407;-54
2022/02/05 13:00:08;;;;;;;;;;;12.90;99.90;;;;;;4176251;28;20367;-53
2022/02/05 13:02:11;;;;;;;;;;;12.80;99.90;;;;;;4173929;28;19925;-53
2022/02/05 13:04:17;;;;;;;;;;;12.90;99.90;;;;;;4176060;28;20007;-54
2022/02/05 13:06:20;;;;;;;;;;;12.60;99.90;;;;;;4183652;28;19971;-55
2022/02/05 13:08:23;;;;;;;;;;;12.60;99.90;;;;;;4174180;28;20398;-53
2022/02/05 13:10:26;;;;;;;;;;;12.50;99.90;;;;;;4175125;28;19969;-54
2022/02/05 13:12:30;;;;;;;;;;;12.10;99.90;;;;;;4175320;28;19929;-54
2022/02/05 13:14:35;;;;;;;;;;;11.90;99.90;;;;;;4174201;28;20443;-53
2022/02/05 13:16:39;;;;;;;;;;;11.70;99.90;;;;;;4174490;28;20274;-54
2022/02/05 13:18:49;;;;;;;;;;;11.70;99.90;;;;;;4178537;28;19929;-54
2022/02/05 13:27:45;;;;;;;;;;;11.40;99.90;;;;;;4177078;28;20028;-53
2022/02/05 13:33:32;;;;;;;;;;;11.40;99.90;;;;;;4177437;28;19929;-54
2022/02/05 13:34:33;;;;;;;;;;;11.30;99.90;;;;;;4174184;28;19929;-53
2022/02/05 13:36:40;;;;;;;;;;;11.40;99.90;;;;;;4170669;28;19925;-53
2022/02/05 13:41:42;;;;;;;;;;;11.90;99.90;;;;;;4126814;28;19953;-54
2022/02/05 13:44:14;;;;;;;;;;;12.10;99.90;;;;;;4119853;28;19930;-53
2022/02/05 13:46:21;;;;;;;;;;;12.20;99.90;;;;;;4139256;28;19940;-54
2022/02/05 13:48:23;;;;;;;;;;;12.30;99.90;;;;;;4172992;28;19965;-54
2022/02/05 13:50:27;;;;;;;;;;;12.10;99.90;;;;;;4170607;28;19925;-55
2022/02/05 13:52:33;;;;;;;;;;;12.20;99.90;;;;;;4178294;28;20452;-54
2022/02/05 13:54:36;;;;;;;;;;;12.30;99.90;;;;;;4175500;28;20380;-53
2022/02/05 13:56:38;;;;;;;;;;;12.20;99.90;;;;;;4173491;28;20385;-55
2022/02/05 13:58:40;;;;;;;;;;;12.20;99.90;;;;;;4176700;28;20558;-54
2022/02/05 14:00:44;;;;;;;;;;;12.30;99.90;;;;;;4174680;28;20053;-54
2022/02/05 14:02:55;;;;;;;;;;;12.20;99.90;;;;;;4178609;28;20030;-54
2022/02/05 14:05:11;;;;;;;;;;;12.20;99.90;;;;;;4177073;28;19929;-53
2022/02/05 14:07:13;;;;;;;;;;;12.10;99.90;;;;;;4169976;28;19968;-54
2022/02/05 14:09:25;;;;;;;;;;;12.10;99.90;;;;;;4178596;28;19936;-54
2022/02/05 14:11:31;;;;;;;;;;;12.00;99.90;;;;;;4176054;28;19964;-54
2022/02/05 14:13:34;;;;;;;;;;;12.00;99.90;;;;;;4175960;28;20285;-54
2022/02/05 14:15:52;;;;;;;;;;;12.10;99.90;;;;;;4178331;28;20345;-54
2022/02/05 14:18:07;;;;;;;;;;;12.00;99.90;;;;;;4174600;28;20403;-53
2022/02/05 14:20:11;;;;;;;;;;;11.90;99.90;;;;;;4173657;28;19933;-55
2022/02/05 14:22:25;;;;;;;;;;;11.90;99.90;;;;;;4176816;28;19931;-53
2022/02/05 14:24:35;;;;;;;;;;;12.00;99.90;;;;;;4178068;28;19959;-53
2022/02/05 14:26:43;;;;;;;;;;;12.10;99.90;;;;;;4173161;28;19936;-53
2022/02/05 14:28:46;;;;;;;;;;;12.50;99.90;;;;;;4169313;28;20621;-54
2022/02/05 14:31:03;;;;;;;;;;;12.60;99.90;;;;;;4178097;28;20043;-54
2022/02/05 14:33:08;;;;;;;;;;;12.60;99.90;;;;;;4176567;28;20023;-53
2022/02/05 14:42:13;;;;;;;;;;;11.90;99.90;;;;;;4176141;28;20043;-54
2022/02/05 14:44:16;;;;;;;;;;;11.70;99.90;;;;;;4179207;28;19963;-54
2022/02/05 14:46:18;;;;;;;;;;;11.70;99.90;;;;;;4176296;28;20002;-53
2022/02/05 14:48:20;;;;;;;;;;;11.70;99.90;;;;;;4177600;28;19932;-54
2022/02/05 14:50:22;;;;;;;;;;;12.00;99.90;;;;;;4176556;28;20404;-54
2022/02/05 14:52:25;;;;;;;;;;;12.10;99.90;;;;;;4183777;28;19924;-54
2022/02/05 14:54:31;;;;;;;;;;;12.10;99.90;;;;;;4179484;28;20023;-54
2022/02/05 14:56:33;;;;;;;;;;;12.10;99.90;;;;;;4177843;28;20023;-54
2022/02/05 14:58:34;;;;;;;;;;;12.10;99.90;;;;;;4176554;28;19956;-54
2022/02/05 15:00:36;;;;;;;;;;;12.30;99.90;;;;;;4173246;28;20428;-54